Terminal Aerodrome Forecast
Issued by NWS

Home | Current Version | Previous Version | Text Only | Print | Product List | Glossary On
Versions: 1 2 3 4 5 6 7 8 9 10 11 12 13 14 15 16 17 18
000
FTUS43 KGRB 182300
TAFATW
TAF
KATW 182320Z 1900/1924 06006KT P6SM SCT030
     FM190600 08007KT P6SM BKN080
     FM191500 14013G18KT P6SM FEW035 BKN120=

USA.gov is the U.S. government's official web portal to all federal, state and local government web resources and services.